Time;durP1;ratioP1;P1;durP2;ratioP2;P2;SDS_P1;SDS_P2;PMS_P1;PMS_P2;Temp;Humidity;BMP_temperature;BMP_pressure;BME280_temperature;BME280_humidity;BME280_pressure;Samples;Min_cycle;Max_cycle;Signal;HPM_P1;HPM_P2
2021/11/09 00:19:15;;;;;;;9.93;7.78;;;;;;;;;;4394451;28;20232;-59
2021/11/09 00:21:41;;;;;;;14.02;8.77;;;;;;;;;;4217843;34;20108;-60
2021/11/09 00:24:07;;;;;;;10.98;8.95;;;;;;;;;;4208803;34;20197;-61
2021/11/09 00:26:32;;;;;;;10.35;9.23;;;;;;;;;;4205419;34;20510;-60
2021/11/09 00:28:59;;;;;;;10.80;8.25;;;;;;;;;;4205405;34;20514;-61
2021/11/09 00:31:24;;;;;;;11.35;8.63;;;;;;;;;;4205361;34;20607;-66
2021/11/09 00:33:50;;;;;;;10.63;7.87;;;;;;;;;;4192299;34;20149;-66
2021/11/09 00:36:16;;;;;;;11.15;8.25;;;;;;;;;;4205168;34;20121;-66
2021/11/09 00:38:43;;;;;;;10.30;7.85;;;;;;;;;;4205535;34;20129;-60
2021/11/09 00:41:09;;;;;;;10.57;8.90;;;;;;;;;;4205439;34;20136;-60
2021/11/09 00:43:35;;;;;;;9.60;6.87;;;;;;;;;;4205152;34;20489;-60
2021/11/09 00:46:00;;;;;;;11.80;8.43;;;;;;;;;;4205252;34;20657;-60
2021/11/09 00:48:26;;;;;;;11.60;9.02;;;;;;;;;;4192390;34;20129;-60
2021/11/09 00:50:53;;;;;;;10.07;8.38;;;;;;;;;;4205131;34;20114;-59
2021/11/09 00:53:19;;;;;;;10.48;8.23;;;;;;;;;;4205432;34;20124;-60
2021/11/09 00:55:46;;;;;;;10.50;8.00;;;;;;;;;;4205041;34;20197;-60
2021/11/09 00:58:12;;;;;;;9.15;7.72;;;;;;;;;;4205113;34;20124;-60
2021/11/09 01:00:38;;;;;;;11.63;7.80;;;;;;;;;;4205007;34;20212;-60
2021/11/09 01:03:05;;;;;;;12.00;8.18;;;;;;;;;;4192429;34;20140;-61
2021/11/09 01:05:31;;;;;;;12.25;8.73;;;;;;;;;;4205200;34;20114;-61
2021/11/09 01:07:58;;;;;;;13.02;8.70;;;;;;;;;;4204475;34;20207;-65
2021/11/09 01:10:27;;;;;;;12.15;9.02;;;;;;;;;;4204968;34;20615;-67
2021/11/09 01:12:53;;;;;;;14.70;9.88;;;;;;;;;;4204919;34;20117;-66
2021/11/09 01:15:19;;;;;;;9.73;8.20;;;;;;;;;;4192048;34;20143;-66
2021/11/09 01:17:45;;;;;;;11.55;7.85;;;;;;;;;;4204924;34;20113;-65
2021/11/09 01:20:12;;;;;;;12.60;9.23;;;;;;;;;;4192026;34;20218;-66
2021/11/09 01:22:39;;;;;;;10.90;8.55;;;;;;;;;;4204712;34;20092;-67
2021/11/09 01:25:05;;;;;;;10.30;8.73;;;;;;;;;;4204905;34;20098;-66
2021/11/09 01:27:31;;;;;;;12.82;8.85;;;;;;;;;;4204910;34;20114;-66
2021/11/09 01:29:58;;;;;;;10.60;8.70;;;;;;;;;;4205005;34;20203;-66
2021/11/09 01:32:23;;;;;;;11.20;8.55;;;;;;;;;;4204840;34;20533;-66
2021/11/09 01:34:49;;;;;;;13.98;9.63;;;;;;;;;;4204800;34;20094;-67
2021/11/09 01:37:15;;;;;;;12.70;8.98;;;;;;;;;;4204738;34;20466;-66
2021/11/09 01:39:41;;;;;;;11.23;8.70;;;;;;;;;;4204657;34;20094;-66
2021/11/09 01:42:08;;;;;;;10.57;7.43;;;;;;;;;;4204822;34;20521;-66
2021/11/09 01:44:34;;;;;;;11.75;8.20;;;;;;;;;;4204635;34;20194;-66
2021/11/09 01:47:00;;;;;;;12.88;8.75;;;;;;;;;;4204740;34;20129;-66
2021/11/09 01:49:26;;;;;;;11.00;7.90;;;;;;;;;;4204623;34;20101;-66
2021/11/09 01:51:52;;;;;;;12.95;8.43;;;;;;;;;;4204784;34;20538;-67
2021/11/09 01:54:18;;;;;;;11.75;8.57;;;;;;;;;;4204810;34;20094;-67
2021/11/09 01:56:45;;;;;;;10.00;8.48;;;;;;;;;;4204416;34;20126;-67
2021/11/09 01:59:11;;;;;;;11.82;8.80;;;;;;;;;;4204446;34;20108;-67
2021/11/09 02:01:36;;;;;;;9.20;7.90;;;;;;;;;;4204762;34;20529;-67
2021/11/09 02:04:05;;;;;;;11.77;7.65;;;;;;;;;;4204815;34;20108;-66
2021/11/09 02:06:31;;;;;;;11.57;8.57;;;;;;;;;;4204494;34;20112;-67
2021/11/09 02:09:10;;;;;;;13.85;9.10;;;;;;;;;;4204634;34;20114;-68
2021/11/09 02:11:36;;;;;;;11.00;8.40;;;;;;;;;;4204736;34;20474;-65
2021/11/09 02:14:02;;;;;;;15.38;9.40;;;;;;;;;;4204350;34;20217;-66
2021/11/09 02:16:28;;;;;;;11.25;9.00;;;;;;;;;;4204656;34;20111;-66
2021/11/09 02:18:54;;;;;;;15.38;9.90;;;;;;;;;;4204050;34;20210;-68
2021/11/09 02:21:20;;;;;;;11.27;9.02;;;;;;;;;;4204560;34;20097;-68
2021/11/09 02:23:46;;;;;;;11.98;8.63;;;;;;;;;;4204237;34;20110;-66
2021/11/09 02:26:17;;;;;;;11.88;9.35;;;;;;;;;;4204328;34;20501;-67
2021/11/09 02:28:44;;;;;;;14.82;8.65;;;;;;;;;;4191646;34;20214;-69
2021/11/09 02:31:10;;;;;;;13.45;9.23;;;;;;;;;;4204249;34;20466;-66
2021/11/09 02:33:36;;;;;;;11.27;8.35;;;;;;;;;;4204327;34;20229;-68
2021/11/09 02:36:02;;;;;;;13.38;8.32;;;;;;;;;;4204216;34;20752;-69
2021/11/09 02:38:28;;;;;;;14.00;8.95;;;;;;;;;;4191350;34;20169;-67
2021/11/09 02:40:55;;;;;;;9.82;8.20;;;;;;;;;;4204171;34;20193;-67
2021/11/09 02:43:21;;;;;;;10.13;8.30;;;;;;;;;;4204424;34;20117;-66
2021/11/09 02:48:41;;;;;;;11.85;8.30;;;;;;;;;;4203989;34;20134;-67
2021/11/09 02:51:21;;;;;;;13.57;8.90;;;;;;;;;;4204328;34;20193;-67
2021/11/09 02:54:02;;;;;;;15.00;8.55;;;;;;;;;;4204185;34;20133;-66
2021/11/09 02:56:34;;;;;;;10.95;8.63;;;;;;;;;;4203854;34;20114;-67
2021/11/09 02:59:18;;;;;;;13.05;9.50;;;;;;;;;;4204046;34;20102;-66
2021/11/09 03:04:47;;;;;;;12.63;8.00;;;;;;;;;;4183514;34;20506;-67
2021/11/09 03:07:32;;;;;;;10.77;8.65;;;;;;;;;;4192570;34;20137;-79
2021/11/09 03:10:09;;;;;;;15.48;9.65;;;;;;;;;;4203007;34;20132;-74
2021/11/09 03:12:37;;;;;;;15.10;8.60;;;;;;;;;;4189896;34;20201;-76
2021/11/09 03:15:05;;;;;;;12.90;8.75;;;;;;;;;;4202612;34;20218;-74
2021/11/09 03:17:41;;;;;;;11.52;8.77;;;;;;;;;;4201855;34;20121;-74
2021/11/09 03:20:09;;;;;;;12.43;9.50;;;;;;;;;;4201797;34;20117;-74
2021/11/09 03:40:03;;;;;;;11.10;7.32;;;;;;;;;;4203776;34;20129;-72
2021/11/09 03:44:45;;;;;;;11.68;8.90;;;;;;;;;;4194969;34;20586;-61
2021/11/09 03:47:14;;;;;;;14.52;8.23;;;;;;;;;;4205981;34;20229;-65
2021/11/09 03:49:41;;;;;;;13.25;8.75;;;;;;;;;;4205542;34;20454;-61
2021/11/09 03:52:16;;;;;;;11.40;7.87;;;;;;;;;;4205782;34;20138;-71
2021/11/09 03:54:42;;;;;;;14.68;9.68;;;;;;;;;;4205859;34;20451;-63
2021/11/09 03:57:29;;;;;;;17.33;8.90;;;;;;;;;;4205573;34;20115;-63
2021/11/09 04:05:22;;;;;;;12.20;8.60;;;;;;;;;;4192547;34;20129;-63
2021/11/09 04:07:47;;;;;;;11.10;8.32;;;;;;;;;;4203774;34;20475;-69
2021/11/09 04:10:28;;;;;;;10.15;7.55;;;;;;;;;;4205528;34;20502;-66
2021/11/09 04:13:07;;;;;;;12.20;7.80;;;;;;;;;;4205428;34;20208;-68
2021/11/09 04:18:25;;;;;;;13.45;8.27;;;;;;;;;;4192135;34;20129;-69
2021/11/09 04:21:08;;;;;;;10.45;7.97;;;;;;;;;;4205341;34;20110;-72
2021/11/09 05:10:11;;;;;;;11.93;5.40;;;;;;;;;;4205320;34;20125;-73
2021/11/09 05:12:37;;;;;;;11.15;5.78;;;;;;;;;;4204940;34;20293;-73
2021/11/09 05:15:03;;;;;;;7.40;5.40;;;;;;;;;;4192154;34;20112;-72
2021/11/09 05:17:29;;;;;;;9.43;4.82;;;;;;;;;;4205080;34;20217;-72
2021/11/09 05:19:55;;;;;;;6.53;4.87;;;;;;;;;;4204851;34;20141;-71
2021/11/09 05:22:21;;;;;;;9.88;5.35;;;;;;;;;;4205063;34;20118;-73
2021/11/09 05:24:46;;;;;;;10.75;5.28;;;;;;;;;;4205177;34;20667;-74
2021/11/09 05:27:15;;;;;;;7.37;4.70;;;;;;;;;;4204906;34;20470;-72
2021/11/09 05:29:43;;;;;;;9.27;5.22;;;;;;;;;;4204790;34;20276;-73
2021/11/09 05:32:09;;;;;;;6.43;5.72;;;;;;;;;;4204687;34;20113;-74
2021/11/09 05:34:35;;;;;;;8.05;5.87;;;;;;;;;;4204403;34;20141;-71
2021/11/09 05:37:02;;;;;;;6.30;4.65;;;;;;;;;;4204818;34;20230;-73
2021/11/09 05:39:34;;;;;;;6.57;5.03;;;;;;;;;;4205024;34;20140;-76
2021/11/09 05:42:00;;;;;;;6.40;5.35;;;;;;;;;;4192867;34;20113;-74
2021/11/09 05:44:27;;;;;;;7.25;5.85;;;;;;;;;;4204521;34;20112;-72
2021/11/09 05:46:53;;;;;;;9.10;5.10;;;;;;;;;;4204518;34;20220;-72
2021/11/09 05:49:19;;;;;;;6.00;5.40;;;;;;;;;;4204574;34;20117;-72
2021/11/09 05:51:44;;;;;;;7.20;5.60;;;;;;;;;;4204444;34;20122;-72
2021/11/09 05:54:10;;;;;;;5.60;4.95;;;;;;;;;;4204357;34;20328;-73
2021/11/09 05:56:36;;;;;;;7.57;4.93;;;;;;;;;;4204558;34;20110;-71
2021/11/09 05:59:02;;;;;;;10.57;5.30;;;;;;;;;;4204445;34;20121;-72
2021/11/09 06:01:28;;;;;;;6.87;5.18;;;;;;;;;;4204335;34;20114;-72
2021/11/09 06:03:54;;;;;;;8.23;4.87;;;;;;;;;;4204475;34;20124;-72
2021/11/09 06:06:20;;;;;;;7.97;4.80;;;;;;;;;;4204597;34;20192;-72
2021/11/09 06:08:48;;;;;;;11.38;5.53;;;;;;;;;;4204175;34;20245;-72
2021/11/09 06:11:14;;;;;;;6.57;4.70;;;;;;;;;;4204200;34;20137;-73
2021/11/09 06:13:40;;;;;;;8.95;4.90;;;;;;;;;;4191583;34;20109;-72
2021/11/09 06:16:06;;;;;;;4.85;4.10;;;;;;;;;;4204251;34;20541;-72
2021/11/09 06:18:32;;;;;;;11.02;4.75;;;;;;;;;;4204180;34;20184;-71
2021/11/09 06:20:58;;;;;;;6.37;4.90;;;;;;;;;;4204165;34;20147;-71
2021/11/09 06:23:23;;;;;;;8.02;4.72;;;;;;;;;;4204175;34;20475;-71
2021/11/09 06:25:49;;;;;;;7.95;4.95;;;;;;;;;;4204154;34;20105;-71
2021/11/09 06:28:18;;;;;;;8.18;5.78;;;;;;;;;;4204147;34;20118;-72
2021/11/09 06:30:46;;;;;;;7.97;4.70;;;;;;;;;;4180485;34;20113;-72
2021/11/09 06:33:12;;;;;;;5.53;4.43;;;;;;;;;;4191241;34;20145;-74
2021/11/09 06:35:38;;;;;;;9.50;5.55;;;;;;;;;;4204170;34;20450;-72
2021/11/09 06:38:04;;;;;;;8.57;5.57;;;;;;;;;;4204068;34;20129;-73
2021/11/09 06:40:30;;;;;;;6.55;5.07;;;;;;;;;;4203937;34;20121;-73
2021/11/09 06:42:56;;;;;;;7.55;5.75;;;;;;;;;;4203763;34;20152;-73
2021/11/09 06:45:22;;;;;;;8.52;5.15;;;;;;;;;;4204255;34;20626;-72
2021/11/09 06:47:51;;;;;;;7.65;5.78;;;;;;;;;;4203890;34;20128;-72
2021/11/09 06:50:16;;;;;;;8.75;6.22;;;;;;;;;;4203858;34;20118;-72
2021/11/09 06:52:42;;;;;;;6.78;5.35;;;;;;;;;;4203950;34;20160;-73
2021/11/09 06:55:09;;;;;;;7.20;5.72;;;;;;;;;;4203797;34;20110;-73
2021/11/09 06:57:35;;;;;;;7.95;5.53;;;;;;;;;;4203702;34;20229;-72
2021/11/09 07:00:01;;;;;;;6.40;5.10;;;;;;;;;;4203837;34;20117;-72
2021/11/09 07:02:27;;;;;;;8.00;5.37;;;;;;;;;;4203695;34;20188;-71
2021/11/09 07:04:53;;;;;;;5.95;4.75;;;;;;;;;;4204223;34;20102;-71
2021/11/09 07:07:19;;;;;;;8.93;5.20;;;;;;;;;;4205091;34;20221;-71
2021/11/09 07:09:45;;;;;;;8.25;5.18;;;;;;;;;;4205781;34;20136;-72
2021/11/09 07:12:11;;;;;;;7.68;4.50;;;;;;;;;;4205934;34;20522;-72
2021/11/09 07:14:36;;;;;;;7.50;5.30;;;;;;;;;;4205677;34;20137;-72
2021/11/09 07:17:02;;;;;;;6.12;4.90;;;;;;;;;;4205782;34;20601;-72
2021/11/09 07:19:28;;;;;;;7.60;5.20;;;;;;;;;;4205630;34;20141;-69
2021/11/09 07:21:55;;;;;;;5.75;5.10;;;;;;;;;;4205613;34;20224;-71
2021/11/09 07:24:21;;;;;;;8.52;4.80;;;;;;;;;;4205666;34;20140;-71
2021/11/09 07:26:46;;;;;;;15.45;5.28;;;;;;;;;;4205802;34;20139;-70
2021/11/09 07:29:12;;;;;;;7.07;4.90;;;;;;;;;;4205711;34;20498;-71
2021/11/09 07:31:38;;;;;;;6.07;3.95;;;;;;;;;;4205912;34;20122;-71
2021/11/09 07:34:04;;;;;;;5.00;3.95;;;;;;;;;;4205480;34;20566;-69
2021/11/09 07:36:32;;;;;;;5.05;3.53;;;;;;;;;;4205625;34;20102;-70
2021/11/09 07:38:58;;;;;;;6.00;4.75;;;;;;;;;;4205691;34;20226;-70
2021/11/09 07:41:24;;;;;;;6.50;4.20;;;;;;;;;;4205642;34;20111;-70
2021/11/09 07:43:49;;;;;;;5.90;4.25;;;;;;;;;;4205541;34;20094;-70
2021/11/09 07:46:15;;;;;;;3.95;3.25;;;;;;;;;;4205564;34;20102;-71
2021/11/09 07:48:42;;;;;;;7.50;3.80;;;;;;;;;;4205529;34;20106;-71
2021/11/09 07:51:07;;;;;;;5.15;4.65;;;;;;;;;;4205585;34;20502;-75
2021/11/09 07:53:38;;;;;;;8.18;4.00;;;;;;;;;;4205590;34;20267;-69
2021/11/09 07:56:19;;;;;;;4.95;3.87;;;;;;;;;;4205545;34;20505;-69
2021/11/09 07:58:57;;;;;;;5.72;4.12;;;;;;;;;;4205325;34;20197;-70
2021/11/09 08:01:35;;;;;;;11.12;4.45;;;;;;;;;;4205370;34;20124;-70
2021/11/09 08:04:15;;;;;;;5.65;4.35;;;;;;;;;;4205415;34;20208;-72
2021/11/09 08:06:54;;;;;;;8.73;4.00;;;;;;;;;;4205546;34;20120;-70
2021/11/09 08:11:47;;;;;;;7.75;3.95;;;;;;;;;;4205264;34;20228;-69
2021/11/09 08:14:13;;;;;;;7.22;4.00;;;;;;;;;;4205280;34;20098;-70
2021/11/09 08:16:39;;;;;;;6.00;5.25;;;;;;;;;;4204858;34;20118;-70
2021/11/09 08:19:05;;;;;;;8.77;4.72;;;;;;;;;;4205259;34;20295;-69
2021/11/09 08:21:31;;;;;;;9.73;3.72;;;;;;;;;;4205132;34;20548;-70
2021/11/09 08:23:57;;;;;;;7.00;4.32;;;;;;;;;;4205334;34;20208;-75
2021/11/09 08:26:24;;;;;;;6.97;4.50;;;;;;;;;;4192387;34;20477;-76
2021/11/09 08:28:51;;;;;;;5.90;4.93;;;;;;;;;;4205235;34;20155;-69
2021/11/09 08:31:20;;;;;;;6.15;4.47;;;;;;;;;;4205168;34;20168;-72
2021/11/09 08:33:46;;;;;;;9.70;4.25;;;;;;;;;;4205010;34;20125;-69
2021/11/09 08:36:16;;;;;;;7.62;4.35;;;;;;;;;;4192182;34;20538;-75
2021/11/09 08:38:42;;;;;;;6.97;4.20;;;;;;;;;;4194585;34;20137;-76
2021/11/09 08:41:09;;;;;;;7.03;3.78;;;;;;;;;;4205317;34;20128;-76
2021/11/09 08:43:40;;;;;;;7.25;4.20;;;;;;;;;;4192394;34;20118;-76
2021/11/09 08:48:42;;;;;;;4.70;4.05;;;;;;;;;;4192764;34;20122;-69
2021/11/09 08:51:11;;;;;;;4.60;3.67;;;;;;;;;;4205256;34;20117;-69
2021/11/09 08:53:44;;;;;;;7.50;4.00;;;;;;;;;;4205202;34;20216;-70
2021/11/09 08:56:31;;;;;;;9.60;3.62;;;;;;;;;;4205223;34;20109;-77
2021/11/09 09:04:20;;;;;;;7.83;4.20;;;;;;;;;;4204879;34;20113;-69
2021/11/09 09:06:46;;;;;;;8.77;3.95;;;;;;;;;;4205843;34;20641;-72
2021/11/09 09:09:14;;;;;;;6.43;3.58;;;;;;;;;;4205539;34;20086;-70
2021/11/09 09:11:40;;;;;;;9.70;3.85;;;;;;;;;;4200263;34;20190;-71
2021/11/09 09:14:06;;;;;;;10.32;5.32;;;;;;;;;;4203232;34;20125;-71
2021/11/09 09:16:33;;;;;;;7.60;4.65;;;;;;;;;;4202897;34;20225;-71
2021/11/09 09:19:01;;;;;;;7.32;3.78;;;;;;;;;;4202899;34;20102;-70
2021/11/09 09:24:01;;;;;;;9.32;4.10;;;;;;;;;;4204510;34;20473;-72
2021/11/09 09:55:51;;;;;;;7.30;5.15;;;;;;;;;;4191661;34;20125;-64
2021/11/09 09:58:17;;;;;;;6.70;4.30;;;;;;;;;;4192054;34;20118;-62
2021/11/09 10:00:43;;;;;;;20.50;4.75;;;;;;;;;;4204053;34;20097;-62
2021/11/09 10:03:09;;;;;;;14.63;4.90;;;;;;;;;;4204116;34;20144;-63
2021/11/09 10:05:38;;;;;;;12.90;5.43;;;;;;;;;;4203611;34;20557;-62
2021/11/09 10:08:18;;;;;;;15.63;7.75;;;;;;;;;;4204004;34;20128;-61
2021/11/09 10:10:45;;;;;;;9.57;5.53;;;;;;;;;;4203979;34;20636;-62
2021/11/09 10:13:13;;;;;;;6.50;3.45;;;;;;;;;;4204216;34;20442;-62
2021/11/09 10:15:42;;;;;;;12.07;4.80;;;;;;;;;;4203578;34;20129;-62
2021/11/09 10:18:14;;;;;;;5.25;3.50;;;;;;;;;;4204186;34;20156;-60
2021/11/09 10:20:46;;;;;;;11.15;3.47;;;;;;;;;;4203519;34;20217;-60
2021/11/09 10:23:20;;;;;;;7.25;4.15;;;;;;;;;;4204041;34;20274;-60
2021/11/09 10:25:46;;;;;;;16.52;7.60;;;;;;;;;;4203749;34;20129;-60
2021/11/09 10:28:21;;;;;;;11.43;5.90;;;;;;;;;;4203808;34;20101;-61
2021/11/09 10:30:53;;;;;;;9.13;5.37;;;;;;;;;;4203956;34;20618;-61
2021/11/09 10:33:20;;;;;;;7.22;4.22;;;;;;;;;;4203568;34;20125;-61
2021/11/09 10:35:47;;;;;;;7.85;4.40;;;;;;;;;;4203458;34;20132;-60
2021/11/09 10:38:13;;;;;;;5.70;4.70;;;;;;;;;;4203954;34;20097;-60
2021/11/09 10:40:48;;;;;;;8.73;3.65;;;;;;;;;;4205800;34;20216;-60
2021/11/09 10:43:15;;;;;;;;;;;;;;;;;;4208837;34;20545;-59
2021/11/09 10:45:41;;;;;;;6.43;3.90;;;;;;;;;;4207653;34;19973;-60
2021/11/09 10:48:15;;;;;;;10.23;4.37;;;;;;;;;;4208491;34;20193;-60
2021/11/09 10:50:45;;;;;;;7.80;4.15;;;;;;;;;;4208185;34;20094;-61
2021/11/09 10:53:21;;;;;;;5.93;4.10;;;;;;;;;;4194750;34;20216;-61
2021/11/09 10:59:01;;;;;;;7.50;4.20;;;;;;;;;;4208310;34;20105;-60
2021/11/09 11:04:03;;;;;;;11.15;4.93;;;;;;;;;;4208229;34;20530;-61
2021/11/09 11:06:30;;;;;;;7.28;4.85;;;;;;;;;;4208360;34;20226;-60
2021/11/09 11:09:11;;;;;;;8.02;4.95;;;;;;;;;;4208203;34;20113;-61
2021/11/09 11:11:39;;;;;;;8.07;4.68;;;;;;;;;;4207780;34;20192;-60
2021/11/09 11:14:24;;;;;;;10.57;4.82;;;;;;;;;;4208513;34;20090;-61
2021/11/09 11:17:02;;;;;;;6.45;4.68;;;;;;;;;;4208083;34;20547;-61
2021/11/09 11:19:29;;;;;;;8.70;4.28;;;;;;;;;;4208241;34;20114;-60
2021/11/09 11:21:55;;;;;;;5.53;4.62;;;;;;;;;;4208096;34;20110;-60
2021/11/09 11:24:23;;;;;;;9.30;4.10;;;;;;;;;;4208234;34;20213;-62
2021/11/09 11:26:50;;;;;;;9.02;4.57;;;;;;;;;;4207778;34;20538;-61
2021/11/09 11:29:21;;;;;;;8.57;4.53;;;;;;;;;;4208173;34;20494;-61
2021/11/09 11:31:47;;;;;;;9.65;5.00;;;;;;;;;;4208037;34;20117;-61
2021/11/09 11:34:15;;;;;;;12.50;5.32;;;;;;;;;;4208124;34;20473;-61
2021/11/09 11:36:41;;;;;;;12.48;4.35;;;;;;;;;;4207625;34;20197;-61
2021/11/09 11:39:08;;;;;;;8.88;4.50;;;;;;;;;;4207949;34;20126;-60
2021/11/09 11:41:36;;;;;;;7.35;4.45;;;;;;;;;;4183314;34;20181;-61
2021/11/09 11:44:04;;;;;;;7.05;5.12;;;;;;;;;;4208092;34;20478;-60
2021/11/09 11:46:33;;;;;;;11.35;4.47;;;;;;;;;;4207312;34;20129;-60
2021/11/09 11:49:03;;;;;;;6.72;4.25;;;;;;;;;;4207770;34;20190;-61
2021/11/09 11:51:31;;;;;;;8.23;4.40;;;;;;;;;;4206231;34;20194;-59
2021/11/09 11:53:56;;;;;;;10.52;4.72;;;;;;;;;;4190518;34;20102;-60
2021/11/09 11:56:45;;;;;;;8.52;4.37;;;;;;;;;;4203994;34;20125;-62
2021/11/09 11:59:34;;;;;;;10.35;5.68;;;;;;;;;;4205600;34;20113;-61
2021/11/09 12:02:05;;;;;;;6.07;4.40;;;;;;;;;;4205350;34;20105;-61
2021/11/09 12:04:54;;;;;;;8.95;4.32;;;;;;;;;;4205281;34;20121;-62
2021/11/09 12:07:22;;;;;;;8.80;4.30;;;;;;;;;;4192618;34;20109;-62
2021/11/09 12:09:51;;;;;;;11.57;4.35;;;;;;;;;;4204785;34;20137;-62
2021/11/09 12:12:17;;;;;;;8.63;4.43;;;;;;;;;;4205301;34;20106;-62
2021/11/09 12:14:50;;;;;;;6.60;4.00;;;;;;;;;;4205274;34;20117;-62
2021/11/09 12:17:40;;;;;;;8.93;4.22;;;;;;;;;;4205069;34;20298;-61
2021/11/09 12:20:18;;;;;;;6.40;4.20;;;;;;;;;;4205405;34;20117;-61
2021/11/09 12:22:50;;;;;;;7.35;3.87;;;;;;;;;;4205650;34;20235;-62
2021/11/09 12:25:16;;;;;;;12.57;4.55;;;;;;;;;;4202954;34;20659;-61
2021/11/09 12:27:52;;;;;;;4.50;3.47;;;;;;;;;;4205215;34;20218;-61
2021/11/09 12:30:37;;;;;;;7.95;4.05;;;;;;;;;;4191367;34;20218;-61
2021/11/09 12:33:10;;;;;;;10.45;5.07;;;;;;;;;;4191237;34;20102;-62
2021/11/09 12:35:37;;;;;;;9.82;4.93;;;;;;;;;;4191496;34;20113;-63
2021/11/09 12:38:02;;;;;;;9.98;3.70;;;;;;;;;;4191431;34;20193;-63
2021/11/09 12:40:55;;;;;;;9.77;3.62;;;;;;;;;;4191309;34;20109;-65
2021/11/09 12:43:22;;;;;;;8.02;3.42;;;;;;;;;;4191520;34;20116;-63
2021/11/09 12:46:00;;;;;;;5.43;3.78;;;;;;;;;;4191376;34;20141;-63
2021/11/09 12:48:27;;;;;;;6.40;3.87;;;;;;;;;;4178824;34;20194;-62
2021/11/09 12:50:59;;;;;;;5.65;2.83;;;;;;;;;;4191361;34;20101;-63
2021/11/09 12:53:26;;;;;;;3.42;2.25;;;;;;;;;;4191272;34;20102;-63
2021/11/09 12:56:00;;;;;;;3.55;2.47;;;;;;;;;;4191351;34;20095;-64
2021/11/09 12:58:32;;;;;;;4.65;2.28;;;;;;;;;;4191212;34;20109;-63
2021/11/09 13:03:58;;;;;;;;;;;;;;;;;;4202786;34;20149;-63
2021/11/09 13:09:28;;;;;;;2.47;2.28;;;;;;;;;;4204588;34;20573;-63
2021/11/09 13:11:58;;;;;;;4.53;2.58;;;;;;;;;;4204722;34;20128;-62
2021/11/09 13:14:34;;;;;;;4.60;2.08;;;;;;;;;;4205077;34;20212;-63
2021/11/09 13:17:37;;;;;;;3.87;2.95;;;;;;;;;;4204784;34;20145;-63
2021/11/09 13:20:15;;;;;;;2.40;2.05;;;;;;;;;;4177765;34;20561;-64
2021/11/09 13:22:59;;;;;;;2.45;2.25;;;;;;;;;;4204356;34;20163;-63
2021/11/09 13:25:37;;;;;;;3.33;2.53;;;;;;;;;;4204733;34;20102;-63
2021/11/09 13:28:13;;;;;;;3.30;2.50;;;;;;;;;;4204716;34;20120;-64
2021/11/09 13:30:40;;;;;;;2.78;2.08;;;;;;;;;;4204400;34;20116;-64
2021/11/09 13:33:06;;;;;;;2.30;2.00;;;;;;;;;;4204397;34;20137;-62
2021/11/09 13:35:35;;;;;;;3.22;2.28;;;;;;;;;;4204503;34;20178;-63
2021/11/09 13:38:17;;;;;;;3.83;2.37;;;;;;;;;;4204674;34;20116;-62
2021/11/09 13:40:58;;;;;;;2.53;2.30;;;;;;;;;;4204464;34;20183;-63
2021/11/09 13:43:50;;;;;;;4.12;2.30;;;;;;;;;;4204242;34;20140;-63
2021/11/09 13:46:20;;;;;;;4.40;2.40;;;;;;;;;;4204157;34;20124;-63
2021/11/09 13:48:51;;;;;;;4.07;2.30;;;;;;;;;;4204552;34;20133;-62
2021/11/09 13:51:24;;;;;;;3.87;2.70;;;;;;;;;;4204054;34;20110;-62
2021/11/09 13:53:53;;;;;;;4.95;2.80;;;;;;;;;;4202192;34;20114;-62
2021/11/09 13:56:23;;;;;;;6.72;2.50;;;;;;;;;;4190594;34;20202;-61
2021/11/09 13:59:07;;;;;;;4.70;2.78;;;;;;;;;;4204478;34;20526;-60
2021/11/09 14:01:35;;;;;;;4.25;2.62;;;;;;;;;;4204304;34;20109;-60
2021/11/09 14:07:14;;;;;;;4.55;2.83;;;;;;;;;;4199312;34;20197;-62
2021/11/09 14:17:54;;;;;;;3.00;2.53;;;;;;;;;;4190174;34;20495;-61
2021/11/09 14:20:24;;;;;;;2.55;2.12;;;;;;;;;;4190469;34;20115;-61
2021/11/09 14:23:01;;;;;;;2.65;2.00;;;;;;;;;;4190903;34;20434;-61
2021/11/09 14:25:27;;;;;;;2.60;2.15;;;;;;;;;;4202449;34;20105;-61
2021/11/09 14:27:53;;;;;;;3.60;2.20;;;;;;;;;;4202778;34;20570;-61
2021/11/09 14:30:21;;;;;;;2.25;2.05;;;;;;;;;;4202736;34;20197;-61
2021/11/09 14:32:47;;;;;;;2.92;2.22;;;;;;;;;;4202317;34;20510;-61
2021/11/09 14:35:25;;;;;;;3.33;2.15;;;;;;;;;;4202135;34;20192;-61
2021/11/09 14:38:03;;;;;;;2.97;2.25;;;;;;;;;;4190434;34;20217;-61
2021/11/09 14:41:00;;;;;;;3.15;2.50;;;;;;;;;;4203387;34;20117;-62
2021/11/09 14:43:34;;;;;;;3.22;2.65;;;;;;;;;;4190926;34;20133;-62
2021/11/09 14:46:14;;;;;;;4.95;2.58;;;;;;;;;;4203886;34;20225;-62
2021/11/09 14:51:21;;;;;;;3.78;2.17;;;;;;;;;;4203702;34;20299;-62
2021/11/09 14:56:30;;;;;;;2.78;2.10;;;;;;;;;;4203662;34;20544;-61
2021/11/09 14:59:03;;;;;;;4.93;1.98;;;;;;;;;;4203666;34;20122;-61
2021/11/09 15:04:46;;;;;;;2.58;2.12;;;;;;;;;;4203584;34;20102;-62
2021/11/09 15:12:46;;;;;;;4.07;2.58;;;;;;;;;;4203056;34;20125;-62
2021/11/09 15:26:19;;;;;;;9.82;3.28;;;;;;;;;;4203371;34;20128;-61
2021/11/09 15:31:21;;;;;;;7.20;3.17;;;;;;;;;;4192938;34;20502;-62
2021/11/09 15:34:14;;;;;;;8.63;3.20;;;;;;;;;;4205249;34;20149;-61
2021/11/09 15:39:15;;;;;;;7.18;3.30;;;;;;;;;;4205547;34;20121;-61
2021/11/09 15:41:42;;;;;;;5.82;3.53;;;;;;;;;;4205064;34;20102;-62
2021/11/09 15:44:08;;;;;;;6.75;3.33;;;;;;;;;;4205419;34;20186;-62
2021/11/09 15:46:34;;;;;;;5.43;3.10;;;;;;;;;;4205323;34;20093;-61
2021/11/09 15:49:00;;;;;;;6.75;3.53;;;;;;;;;;4205358;34;20526;-61
2021/11/09 15:51:26;;;;;;;6.60;3.75;;;;;;;;;;4205069;34;20113;-62
2021/11/09 15:53:52;;;;;;;5.35;4.20;;;;;;;;;;4204601;34;20134;-62
2021/11/09 15:56:18;;;;;;;7.37;3.28;;;;;;;;;;4205285;34;20102;-61
2021/11/09 15:58:44;;;;;;;8.60;3.87;;;;;;;;;;4205310;34;20140;-61
2021/11/09 16:01:10;;;;;;;4.45;3.28;;;;;;;;;;4205633;34;20106;-61
2021/11/09 16:03:38;;;;;;;10.43;4.10;;;;;;;;;;4205554;34;20283;-61
2021/11/09 16:06:06;;;;;;;9.15;3.78;;;;;;;;;;4205506;34;20129;-61
2021/11/09 16:08:33;;;;;;;6.53;4.10;;;;;;;;;;4205555;34;20498;-61
2021/11/09 16:11:11;;;;;;;4.82;3.30;;;;;;;;;;4205453;34;20199;-61
2021/11/09 16:13:38;;;;;;;7.95;4.00;;;;;;;;;;4205291;34;20181;-60
2021/11/09 16:16:05;;;;;;;5.70;3.92;;;;;;;;;;4205379;34;20094;-61
2021/11/09 16:18:31;;;;;;;3.90;3.50;;;;;;;;;;4205154;34;20209;-60
2021/11/09 16:20:57;;;;;;;7.32;4.00;;;;;;;;;;4205220;34;20128;-61
2021/11/09 16:23:24;;;;;;;4.97;3.80;;;;;;;;;;4192229;34;20116;-60
2021/11/09 16:25:50;;;;;;;6.30;3.92;;;;;;;;;;4205185;34;20125;-61
2021/11/09 16:28:16;;;;;;;5.90;3.75;;;;;;;;;;4205139;34;20638;-61
2021/11/09 16:30:42;;;;;;;6.32;4.25;;;;;;;;;;4205519;34;20212;-60
2021/11/09 16:33:23;;;;;;;10.43;4.20;;;;;;;;;;4205204;34;20118;-60
2021/11/09 16:35:59;;;;;;;5.10;3.95;;;;;;;;;;4205105;34;20121;-61
2021/11/09 16:38:29;;;;;;;6.53;3.80;;;;;;;;;;4204999;34;20121;-61
2021/11/09 16:40:56;;;;;;;5.57;4.05;;;;;;;;;;4205230;34;20105;-60
2021/11/09 16:43:44;;;;;;;9.07;4.12;;;;;;;;;;4205196;34;20208;-62
2021/11/09 16:46:17;;;;;;;5.03;3.90;;;;;;;;;;4194713;34;20188;-61
2021/11/09 16:51:44;;;;;;;7.43;3.75;;;;;;;;;;4190717;34;20117;-61
2021/11/09 16:57:18;;;;;;;8.80;4.47;;;;;;;;;;4205231;34;20108;-61
2021/11/09 16:59:59;;;;;;;9.38;5.15;;;;;;;;;;4205105;34;20197;-61
2021/11/09 18:20:53;;;;;;;5.72;3.53;;;;;;;;;;4190518;34;20113;-61
2021/11/09 18:23:19;;;;;;;8.43;3.75;;;;;;;;;;4200493;34;20120;-59
2021/11/09 18:25:45;;;;;;;6.30;3.60;;;;;;;;;;4204237;34;20114;-60
2021/11/09 18:28:11;;;;;;;8.80;3.87;;;;;;;;;;4204143;34;20137;-59
2021/11/09 18:30:39;;;;;;;5.50;4.10;;;;;;;;;;4204270;34;20128;-58
2021/11/09 18:33:06;;;;;;;7.75;3.90;;;;;;;;;;4204115;34;20220;-61
2021/11/09 18:35:32;;;;;;;5.93;3.60;;;;;;;;;;4204089;34;20096;-61
2021/11/09 18:38:01;;;;;;;8.57;3.33;;;;;;;;;;4204175;34;20102;-61
2021/11/09 18:40:29;;;;;;;6.00;3.80;;;;;;;;;;4204132;34;20117;-61
2021/11/09 18:42:55;;;;;;;6.05;3.30;;;;;;;;;;4203881;34;20209;-61
2021/11/09 18:45:23;;;;;;;7.18;4.05;;;;;;;;;;4204094;34;20157;-61
2021/11/09 18:47:50;;;;;;;4.57;3.58;;;;;;;;;;4204013;34;20196;-61
2021/11/09 18:50:18;;;;;;;7.53;3.92;;;;;;;;;;4204109;34;20546;-59
2021/11/09 18:52:43;;;;;;;7.40;3.92;;;;;;;;;;4204233;34;20124;-61
2021/11/09 18:55:09;;;;;;;4.43;3.40;;;;;;;;;;4204312;34;20118;-61
2021/11/09 18:57:35;;;;;;;6.75;3.67;;;;;;;;;;4203820;34;20153;-61
2021/11/09 19:00:03;;;;;;;6.80;3.62;;;;;;;;;;4204123;34;20136;-61
2021/11/09 19:02:29;;;;;;;7.15;3.35;;;;;;;;;;4205520;34;20125;-60
2021/11/09 19:04:59;;;;;;;5.45;3.22;;;;;;;;;;4206373;34;20114;-61
2021/11/09 19:07:25;;;;;;;5.55;3.20;;;;;;;;;;4205900;34;20637;-61
2021/11/09 19:09:51;;;;;;;6.70;3.87;;;;;;;;;;4206067;34;20121;-61
2021/11/09 19:12:16;;;;;;;4.68;2.60;;;;;;;;;;4205871;34;20454;-60
2021/11/09 19:14:42;;;;;;;3.62;2.85;;;;;;;;;;4206205;34;20090;-59
2021/11/09 19:17:08;;;;;;;4.43;2.83;;;;;;;;;;4205752;34;20109;-61
2021/11/09 19:19:34;;;;;;;3.53;3.12;;;;;;;;;;4205893;34;20189;-60
2021/11/09 19:22:00;;;;;;;3.87;2.60;;;;;;;;;;4205704;34;20509;-61
2021/11/09 19:24:26;;;;;;;3.58;2.80;;;;;;;;;;4205788;34;20109;-61
2021/11/09 19:26:52;;;;;;;4.45;3.00;;;;;;;;;;4193618;34;20133;-61
2021/11/09 19:29:20;;;;;;;4.95;2.90;;;;;;;;;;4205850;34;20117;-60
2021/11/09 19:31:46;;;;;;;7.87;3.25;;;;;;;;;;4205779;34;20102;-60